createdAt,value
2022-09-02T00:01:52.481Z,100.00
2022-09-02T00:05:54.528Z,100.00
2022-09-02T00:09:57.046Z,100.00
2022-09-02T00:14:02.920Z,100.00
2022-09-02T00:18:07.013Z,100.00
2022-09-02T00:22:16.366Z,100.00
2022-09-02T00:26:19.554Z,100.00
2022-09-02T00:30:21.639Z,100.00
2022-09-02T00:34:24.555Z,100.00
2022-09-02T00:38:26.737Z,100.00
2022-09-02T00:42:29.198Z,100.00
2022-09-02T00:46:33.400Z,100.00
2022-09-02T00:50:37.325Z,100.00
2022-09-02T00:54:45.704Z,100.00
2022-09-02T00:58:51.240Z,100.00
2022-09-02T01:02:57.398Z,100.00
2022-09-02T01:06:59.970Z,100.00
2022-09-02T01:11:06.441Z,100.00
2022-09-02T01:15:12.044Z,100.00
2022-09-02T01:19:25.461Z,100.00
2022-09-02T01:23:32.381Z,100.00
2022-09-02T01:27:37.435Z,100.00
2022-09-02T01:31:39.908Z,100.00
2022-09-02T01:35:42.983Z,100.00
2022-09-02T01:39:49.946Z,100.00
2022-09-02T01:43:51.995Z,100.00
2022-09-02T01:47:54.485Z,100.00
2022-09-02T01:51:56.807Z,100.00
2022-09-02T01:56:00.071Z,100.00
2022-09-02T02:00:07.717Z,100.00
2022-09-02T02:04:16.296Z,100.00
2022-09-02T02:08:20.083Z,100.00
2022-09-02T02:12:22.804Z,100.00
2022-09-02T02:16:25.603Z,100.00
2022-09-02T02:20:28.024Z,100.00
2022-09-02T02:24:30.186Z,100.00
2022-09-02T02:28:32.489Z,100.00
2022-09-02T02:32:39.579Z,100.00
2022-09-02T02:36:43.119Z,100.00
2022-09-02T02:40:45.600Z,100.00
2022-09-02T02:44:48.034Z,100.00
2022-09-02T02:48:50.196Z,100.00
2022-09-02T02:52:55.046Z,100.00
2022-09-02T02:56:59.041Z,100.00
2022-09-02T03:01:02.064Z,100.00
2022-09-02T03:05:07.903Z,100.00
2022-09-02T03:09:10.718Z,100.00
2022-09-02T03:13:15.459Z,100.00
2022-09-02T03:17:20.147Z,100.00
2022-09-02T03:21:23.226Z,100.00
2022-09-02T03:25:32.242Z,100.00
2022-09-02T03:29:41.078Z,100.00
2022-09-02T03:33:44.107Z,100.00
2022-09-02T03:37:47.874Z,100.00
2022-09-02T03:41:50.491Z,100.00
2022-09-02T03:45:53.237Z,100.00
2022-09-02T03:49:57.402Z,100.00
2022-09-02T03:54:00.318Z,100.00
2022-09-02T03:58:07.857Z,100.00
2022-09-02T04:02:12.790Z,100.00
2022-09-02T04:06:20.145Z,100.00
2022-09-02T04:10:22.870Z,100.00
2022-09-02T04:14:25.752Z,100.00
2022-09-02T04:18:28.337Z,100.00
2022-09-02T04:22:35.419Z,100.00
2022-09-02T04:26:44.979Z,100.00
2022-09-02T04:30:49.822Z,100.00
2022-09-02T04:34:52.164Z,100.00
2022-09-02T04:38:56.233Z,100.00
2022-09-02T04:43:01.116Z,100.00
2022-09-02T04:47:03.967Z,100.00
2022-09-02T04:51:10.003Z,100.00
2022-09-02T04:55:13.751Z,100.00
2022-09-02T04:59:16.254Z,100.00
2022-09-02T05:03:28.590Z,100.00
2022-09-02T05:07:31.730Z,100.00
2022-09-02T05:11:35.345Z,100.00
2022-09-02T05:15:41.039Z,100.00
2022-09-02T05:19:46.008Z,100.00
2022-09-02T05:23:54.646Z,100.00
2022-09-02T05:27:58.599Z,100.00
2022-09-02T05:32:00.987Z,100.00
2022-09-02T05:36:05.150Z,100.00
2022-09-02T05:40:08.258Z,100.00
2022-09-02T05:44:13.411Z,100.00
2022-09-02T05:48:34.170Z,100.00
2022-09-02T05:52:36.624Z,100.00
2022-09-02T05:56:45.077Z,100.00
2022-09-02T06:00:49.800Z,100.00
2022-09-02T06:04:54.842Z,100.00
2022-09-02T06:09:01.017Z,100.00
2022-09-02T06:13:03.572Z,100.00
2022-09-02T06:17:09.433Z,100.00
2022-09-02T06:21:21.099Z,100.00
2022-09-02T06:25:26.831Z,100.00
2022-09-02T06:29:31.447Z,100.00
2022-09-02T06:33:35.463Z,100.00
2022-09-02T06:37:37.646Z,100.00
2022-09-02T06:41:41.998Z,100.00
2022-09-02T06:45:47.167Z,100.00
2022-09-02T06:49:49.877Z,100.00
2022-09-02T06:53:54.405Z,100.00
2022-09-02T06:57:58.955Z,100.00
2022-09-02T07:02:01.245Z,100.00
2022-09-02T07:06:09.791Z,100.00
2022-09-02T07:10:16.098Z,100.00
2022-09-02T07:14:25.183Z,100.00
2022-09-02T07:18:29.574Z,100.00
2022-09-02T07:22:32.306Z,100.00
2022-09-02T07:26:37.678Z,100.00
2022-09-02T07:30:43.411Z,100.00
2022-09-02T07:34:49.521Z,100.00
2022-09-02T07:38:53.848Z,100.00
2022-09-02T07:47:06.778Z,100.00
2022-09-02T07:51:12.958Z,100.00
2022-09-02T07:55:16.157Z,100.00
2022-09-02T07:59:21.882Z,100.00
2022-09-02T08:03:27.699Z,100.00
2022-09-02T08:07:32.126Z,100.00
2022-09-02T08:11:37.407Z,100.00
2022-09-02T08:15:40.186Z,100.00
2022-09-02T08:19:42.445Z,100.00
2022-09-02T08:23:48.140Z,100.00
2022-09-02T08:27:50.497Z,100.00
2022-09-02T08:31:54.133Z,100.00
2022-09-02T08:35:56.867Z,100.00
2022-09-02T08:39:59.218Z,100.00
2022-09-02T08:44:02.562Z,100.00
2022-09-02T08:48:45.379Z,100.00
2022-09-02T08:53:04.930Z,100.00
2022-09-02T08:57:08.000Z,100.00
2022-09-02T09:01:29.231Z,100.00
2022-09-02T09:06:00.892Z,100.00
2022-09-02T09:10:37.303Z,100.00
2022-09-02T09:14:51.354Z,92.10
2022-09-02T09:19:11.789Z,76.26
2022-09-02T09:23:20.062Z,100.00
2022-09-02T09:27:24.651Z,81.48
2022-09-02T09:31:32.626Z,69.29
2022-09-02T09:35:50.801Z,78.68
2022-09-02T09:39:53.797Z,83.46
2022-09-02T09:43:57.032Z,66.72
2022-09-02T09:48:17.209Z,68.25
2022-09-02T09:52:28.550Z,80.40
2022-09-02T09:56:37.311Z,74.17
2022-09-02T10:00:41.569Z,71.14
2022-09-02T10:04:44.189Z,69.29
2022-09-02T10:09:25.115Z,71.04
2022-09-02T10:13:32.520Z,63.84
2022-09-02T10:18:14.857Z,60.04
2022-09-02T10:22:48.565Z,53.25
2022-09-02T10:27:02.609Z,52.69
2022-09-02T10:31:38.966Z,53.81
2022-09-02T10:35:48.911Z,56.43
2022-09-02T10:40:17.418Z,54.62
2022-09-02T10:44:28.198Z,53.85
2022-09-02T10:49:04.761Z,52.46
2022-09-02T10:53:23.376Z,54.32
2022-09-02T10:57:31.579Z,54.37
2022-09-02T11:02:12.706Z,52.70
2022-09-02T11:06:35.303Z,51.51
2022-09-02T11:11:01.798Z,54.57
2022-09-02T11:15:10.739Z,56.17
2022-09-02T11:19:35.751Z,55.23
2022-09-02T11:24:04.366Z,50.22
2022-09-02T11:28:29.437Z,52.23
2022-09-02T11:32:39.442Z,49.46
2022-09-02T11:36:43.343Z,46.30
2022-09-02T11:41:32.889Z,49.64
2022-09-02T11:45:44.204Z,48.67
2022-09-02T11:50:16.858Z,48.84
2022-09-02T11:54:21.164Z,46.93
2022-09-02T11:58:34.947Z,47.53
2022-09-02T12:02:45.925Z,44.96
2022-09-02T12:07:08.651Z,48.57
2022-09-02T12:11:41.818Z,47.75
2022-09-02T12:15:45.619Z,46.25
2022-09-02T12:19:50.105Z,47.81
2022-09-02T12:23:55.211Z,49.11
2022-09-02T12:28:27.458Z,47.03
2022-09-02T12:32:45.391Z,49.00
2022-09-02T12:36:56.229Z,51.26
2022-09-02T12:41:07.889Z,52.89
2022-09-02T12:45:26.833Z,51.46
2022-09-02T12:49:33.802Z,52.34
2022-09-02T12:53:42.307Z,51.86
2022-09-02T12:57:47.536Z,51.84
2022-09-02T13:02:04.870Z,50.53
2022-09-02T13:06:26.739Z,48.49
2022-09-02T13:10:40.763Z,48.99
2022-09-02T13:15:07.440Z,47.46
2022-09-02T13:19:47.176Z,49.45
2022-09-02T13:24:02.433Z,49.75
2022-09-02T13:28:17.344Z,51.79
2022-09-02T13:32:19.402Z,53.73
2022-09-02T13:36:28.367Z,51.13
2022-09-02T13:40:33.914Z,51.08
2022-09-02T13:44:36.227Z,49.71
2022-09-02T13:48:40.577Z,45.01
2022-09-02T13:53:34.599Z,46.05
2022-09-02T13:57:12.131Z,45.53
2022-09-02T14:01:35.827Z,46.39
2022-09-02T14:05:45.344Z,46.84
2022-09-02T14:09:50.954Z,50.61
2022-09-02T14:13:54.901Z,51.90
2022-09-02T14:18:18.375Z,51.33
2022-09-02T14:22:28.925Z,53.22
2022-09-02T14:26:38.507Z,57.13
2022-09-02T14:30:41.628Z,58.31
2022-09-02T14:34:45.914Z,57.38
2022-09-02T14:38:47.921Z,61.28
2022-09-02T14:42:57.551Z,73.25
2022-09-02T14:47:15.402Z,57.70
2022-09-02T14:51:19.319Z,60.54
2022-09-02T14:55:41.286Z,60.79
2022-09-02T14:59:43.615Z,69.69
2022-09-02T15:03:47.439Z,59.60
2022-09-02T15:07:49.705Z,49.97
2022-09-02T15:11:53.927Z,48.90
2022-09-02T15:15:57.344Z,54.89
2022-09-02T15:19:59.442Z,55.03
2022-09-02T15:24:03.058Z,52.86
2022-09-02T15:28:05.275Z,47.66
2022-09-02T15:32:07.706Z,41.48
2022-09-02T15:36:13.148Z,35.96
2022-09-02T15:40:16.047Z,35.78
2022-09-02T15:44:18.485Z,39.10
2022-09-02T15:48:20.847Z,44.52
2022-09-02T15:52:23.793Z,50.78
2022-09-02T15:56:28.065Z,61.32
2022-09-02T16:00:32.158Z,64.50
2022-09-02T16:04:38.623Z,80.13
2022-09-02T16:08:40.883Z,83.87
2022-09-02T16:12:43.082Z,100.00
2022-09-02T16:16:45.692Z,100.00
2022-09-02T16:20:48.240Z,100.00
2022-09-02T16:24:51.119Z,100.00
2022-09-02T16:29:00.588Z,100.00
2022-09-02T16:33:02.687Z,100.00
2022-09-02T16:37:06.467Z,100.00
2022-09-02T16:41:43.909Z,100.00
2022-09-02T16:45:46.582Z,100.00
2022-09-02T16:49:48.672Z,100.00
2022-09-02T16:53:56.279Z,100.00
2022-09-02T16:58:03.185Z,100.00
2022-09-02T17:02:05.821Z,100.00
2022-09-02T17:06:09.007Z,100.00
2022-09-02T17:10:11.666Z,100.00
2022-09-02T17:14:16.907Z,100.00
2022-09-02T17:18:19.212Z,100.00
2022-09-02T17:22:21.281Z,100.00
2022-09-02T17:26:26.648Z,100.00
2022-09-02T17:30:28.987Z,100.00
2022-09-02T17:34:33.456Z,100.00
2022-09-02T17:38:35.552Z,100.00
2022-09-02T17:42:38.610Z,100.00
2022-09-02T17:46:42.108Z,100.00
2022-09-02T17:50:44.380Z,100.00
2022-09-02T17:54:49.284Z,100.00
2022-09-02T17:59:19.506Z,100.00
2022-09-02T18:03:39.523Z,100.00
2022-09-02T18:07:49.856Z,100.00
2022-09-02T18:11:53.114Z,100.00
2022-09-02T18:15:59.005Z,100.00
2022-09-02T18:20:16.602Z,100.00
2022-09-02T18:24:35.480Z,100.00
2022-09-02T18:28:58.828Z,100.00
2022-09-02T18:33:17.098Z,100.00
2022-09-02T18:37:40.209Z,100.00
2022-09-02T18:42:01.207Z,100.00
2022-09-02T18:46:05.451Z,100.00
2022-09-02T18:50:11.290Z,100.00
2022-09-02T18:54:30.866Z,100.00
2022-09-02T18:59:14.929Z,100.00
2022-09-02T19:03:17.466Z,100.00
2022-09-02T19:07:39.722Z,100.00
2022-09-02T19:11:42.240Z,100.00
2022-09-02T19:15:44.701Z,100.00
2022-09-02T19:19:46.743Z,100.00
2022-09-02T19:23:49.487Z,100.00
2022-09-02T19:27:55.151Z,100.00
2022-09-02T19:31:57.501Z,100.00
2022-09-02T19:35:59.797Z,100.00
2022-09-02T19:40:08.067Z,100.00
2022-09-02T19:44:12.684Z,100.00
2022-09-02T19:48:15.630Z,100.00
2022-09-02T19:52:21.049Z,100.00
2022-09-02T19:56:23.396Z,100.00
2022-09-02T20:00:25.643Z,100.00
2022-09-02T20:04:29.965Z,100.00
2022-09-02T20:08:32.654Z,100.00
2022-09-02T20:12:36.557Z,100.00
2022-09-02T20:16:38.805Z,100.00
2022-09-02T20:20:49.659Z,100.00
2022-09-02T20:24:51.595Z,100.00
2022-09-02T20:28:59.597Z,100.00
2022-09-02T20:33:16.747Z,100.00
2022-09-02T20:37:21.732Z,100.00
2022-09-02T20:41:34.049Z,100.00
2022-09-02T20:45:52.744Z,100.00
2022-09-02T20:50:18.463Z,100.00
2022-09-02T20:54:31.358Z,100.00
2022-09-02T20:58:50.915Z,100.00
2022-09-02T21:03:05.533Z,100.00
2022-09-02T21:07:26.688Z,100.00
2022-09-02T21:11:38.142Z,100.00
2022-09-02T21:15:55.771Z,100.00
2022-09-02T21:20:09.872Z,100.00
2022-09-02T21:24:37.632Z,100.00
2022-09-02T21:28:50.122Z,100.00
2022-09-02T21:32:57.658Z,100.00
2022-09-02T21:37:00.535Z,100.00
2022-09-02T21:41:20.610Z,100.00
2022-09-02T21:45:44.423Z,100.00
2022-09-02T21:50:24.024Z,100.00
2022-09-02T21:54:44.566Z,100.00
2022-09-02T21:58:49.522Z,100.00
2022-09-02T22:03:16.394Z,100.00
2022-09-02T22:07:26.428Z,100.00
2022-09-02T22:11:32.076Z,100.00
2022-09-02T22:16:01.516Z,100.00
2022-09-02T22:20:07.586Z,100.00
2022-09-02T22:24:10.167Z,100.00
2022-09-02T22:28:21.143Z,100.00
2022-09-02T22:37:34.338Z,100.00
2022-09-02T22:41:45.604Z,100.00
2022-09-02T22:46:24.851Z,100.00
2022-09-02T22:50:52.367Z,100.00
2022-09-02T22:54:56.862Z,100.00
2022-09-02T22:59:18.242Z,100.00
2022-09-02T23:03:55.210Z,100.00
2022-09-02T23:07:57.480Z,100.00
2022-09-02T23:12:13.267Z,100.00
2022-09-02T23:16:40.243Z,100.00
2022-09-02T23:20:51.443Z,100.00
2022-09-02T23:25:24.575Z,100.00
2022-09-02T23:29:29.772Z,100.00
2022-09-02T23:33:53.173Z,100.00
2022-09-02T23:38:16.619Z,100.00
2022-09-02T23:42:19.272Z,100.00
2022-09-02T23:46:52.034Z,100.00
2022-09-02T23:51:07.128Z,100.00
2022-09-02T23:55:09.524Z,100.00
2022-09-02T23:59:35.087Z,100.00
